sensor_id;sensor_type;location;lat;lon;timestamp;temperature;humidity
12688;DHT22;6408;59.388;17.798;2023-04-06T00:01:27;-0.30;99.90
12688;DHT22;6408;59.388;17.798;2023-04-06T00:03:55;-0.40;99.90
12688;DHT22;6408;59.388;17.798;2023-04-06T00:06:22;-0.40;99.90
12688;DHT22;6408;59.388;17.798;2023-04-06T00:08:50;-0.30;99.90
12688;DHT22;6408;59.388;17.798;2023-04-06T00:11:18;-0.40;99.90
12688;DHT22;6408;59.388;17.798;2023-04-06T00:13:47;-0.40;99.90
12688;DHT22;6408;59.388;17.798;2023-04-06T00:16:15;-0.40;99.90
12688;DHT22;6408;59.388;17.798;2023-04-06T00:18:43;-0.30;99.90
12688;DHT22;6408;59.388;17.798;2023-04-06T00:21:11;-0.30;99.90
12688;DHT22;6408;59.388;17.798;2023-04-06T00:23:39;-0.40;99.90
12688;DHT22;6408;59.388;17.798;2023-04-06T00:26:08;-0.40;99.90
12688;DHT22;6408;59.388;17.798;2023-04-06T00:28:37;-0.30;99.90
12688;DHT22;6408;59.388;17.798;2023-04-06T00:31:06;-0.40;99.90
12688;DHT22;6408;59.388;17.798;2023-04-06T00:33:34;-0.50;99.90
12688;DHT22;6408;59.388;17.798;2023-04-06T00:36:01;-0.50;99.90
12688;DHT22;6408;59.388;17.798;2023-04-06T00:38:29;-0.50;99.90
12688;DHT22;6408;59.388;17.798;2023-04-06T00:40:57;-0.60;99.90
12688;DHT22;6408;59.388;17.798;2023-04-06T00:43:25;-0.60;99.90
12688;DHT22;6408;59.388;17.798;2023-04-06T00:45:53;-0.50;99.90
12688;DHT22;6408;59.388;17.798;2023-04-06T00:48:22;-0.60;99.90
12688;DHT22;6408;59.388;17.798;2023-04-06T00:50:50;-0.60;99.90
12688;DHT22;6408;59.388;17.798;2023-04-06T00:53:17;-0.60;99.90
12688;DHT22;6408;59.388;17.798;2023-04-06T00:55:45;-0.60;99.90
12688;DHT22;6408;59.388;17.798;2023-04-06T00:58:12;-0.60;99.90
12688;DHT22;6408;59.388;17.798;2023-04-06T01:00:41;-0.60;99.90
12688;DHT22;6408;59.388;17.798;2023-04-06T01:03:08;-0.60;99.90
12688;DHT22;6408;59.388;17.798;2023-04-06T01:05:38;-0.60;99.90
12688;DHT22;6408;59.388;17.798;2023-04-06T01:08:08;-0.60;99.90
12688;DHT22;6408;59.388;17.798;2023-04-06T01:10:36;-0.60;99.90
12688;DHT22;6408;59.388;17.798;2023-04-06T01:13:04;-0.60;99.90
12688;DHT22;6408;59.388;17.798;2023-04-06T01:15:32;-0.60;99.90
12688;DHT22;6408;59.388;17.798;2023-04-06T01:18:01;-0.60;99.90
12688;DHT22;6408;59.388;17.798;2023-04-06T01:20:30;-0.60;99.90
12688;DHT22;6408;59.388;17.798;2023-04-06T01:22:59;-0.60;99.90
12688;DHT22;6408;59.388;17.798;2023-04-06T01:25:27;-0.50;99.90
12688;DHT22;6408;59.388;17.798;2023-04-06T01:27:55;-0.40;99.90
12688;DHT22;6408;59.388;17.798;2023-04-06T01:30:23;-0.40;99.90
12688;DHT22;6408;59.388;17.798;2023-04-06T01:32:50;-0.40;99.90
12688;DHT22;6408;59.388;17.798;2023-04-06T01:35:18;-0.30;99.90
12688;DHT22;6408;59.388;17.798;2023-04-06T01:37:46;-0.30;99.90
12688;DHT22;6408;59.388;17.798;2023-04-06T01:40:16;-0.20;99.90
12688;DHT22;6408;59.388;17.798;2023-04-06T01:42:43;-0.20;99.90
12688;DHT22;6408;59.388;17.798;2023-04-06T01:45:11;-0.10;99.90
12688;DHT22;6408;59.388;17.798;2023-04-06T01:47:39;0.00;99.90
12688;DHT22;6408;59.388;17.798;2023-04-06T01:50:07;0.00;99.90
12688;DHT22;6408;59.388;17.798;2023-04-06T01:52:35;0.00;99.90
12688;DHT22;6408;59.388;17.798;2023-04-06T01:55:02;-0.10;99.90
12688;DHT22;6408;59.388;17.798;2023-04-06T01:57:33;0.00;99.90
12688;DHT22;6408;59.388;17.798;2023-04-06T02:00:00;0.00;99.90
12688;DHT22;6408;59.388;17.798;2023-04-06T02:02:28;0.00;99.90
12688;DHT22;6408;59.388;17.798;2023-04-06T02:04:56;0.10;99.90
12688;DHT22;6408;59.388;17.798;2023-04-06T02:07:24;0.10;99.90
12688;DHT22;6408;59.388;17.798;2023-04-06T02:09:54;0.20;99.90
12688;DHT22;6408;59.388;17.798;2023-04-06T02:12:22;0.20;99.90
12688;DHT22;6408;59.388;17.798;2023-04-06T02:14:51;0.20;99.90
12688;DHT22;6408;59.388;17.798;2023-04-06T02:17:18;0.10;99.90
12688;DHT22;6408;59.388;17.798;2023-04-06T02:19:46;0.20;99.90
12688;DHT22;6408;59.388;17.798;2023-04-06T02:22:14;0.20;99.90
12688;DHT22;6408;59.388;17.798;2023-04-06T02:24:42;0.20;99.90
12688;DHT22;6408;59.388;17.798;2023-04-06T02:27:09;0.20;99.90
12688;DHT22;6408;59.388;17.798;2023-04-06T02:29:37;0.20;99.90
12688;DHT22;6408;59.388;17.798;2023-04-06T02:32:06;0.20;99.90
12688;DHT22;6408;59.388;17.798;2023-04-06T02:34:34;0.20;99.90
12688;DHT22;6408;59.388;17.798;2023-04-06T02:37:02;0.30;99.90
12688;DHT22;6408;59.388;17.798;2023-04-06T02:39:29;0.30;99.90
12688;DHT22;6408;59.388;17.798;2023-04-06T02:41:57;0.30;99.90
12688;DHT22;6408;59.388;17.798;2023-04-06T02:44:25;0.30;99.90
12688;DHT22;6408;59.388;17.798;2023-04-06T02:46:53;0.30;99.90
12688;DHT22;6408;59.388;17.798;2023-04-06T02:49:22;0.30;99.90
12688;DHT22;6408;59.388;17.798;2023-04-06T02:51:50;0.40;99.90
12688;DHT22;6408;59.388;17.798;2023-04-06T02:54:18;0.30;99.90
12688;DHT22;6408;59.388;17.798;2023-04-06T02:56:46;0.30;99.90
12688;DHT22;6408;59.388;17.798;2023-04-06T02:59:13;0.30;99.90
12688;DHT22;6408;59.388;17.798;2023-04-06T03:01:41;0.40;99.90
12688;DHT22;6408;59.388;17.798;2023-04-06T03:04:09;0.30;99.90
12688;DHT22;6408;59.388;17.798;2023-04-06T03:06:38;0.40;99.90
12688;DHT22;6408;59.388;17.798;2023-04-06T03:09:06;0.30;99.90
12688;DHT22;6408;59.388;17.798;2023-04-06T03:11:34;0.30;99.90
12688;DHT22;6408;59.388;17.798;2023-04-06T03:14:02;0.40;99.90
12688;DHT22;6408;59.388;17.798;2023-04-06T03:16:29;0.30;99.90
12688;DHT22;6408;59.388;17.798;2023-04-06T03:18:57;0.40;99.90
12688;DHT22;6408;59.388;17.798;2023-04-06T03:21:24;0.30;99.90
12688;DHT22;6408;59.388;17.798;2023-04-06T03:23:53;0.40;99.90
12688;DHT22;6408;59.388;17.798;2023-04-06T03:26:21;0.40;99.90
12688;DHT22;6408;59.388;17.798;2023-04-06T03:28:49;0.40;99.90
12688;DHT22;6408;59.388;17.798;2023-04-06T03:31:17;0.40;99.90
12688;DHT22;6408;59.388;17.798;2023-04-06T03:33:45;0.40;99.90
12688;DHT22;6408;59.388;17.798;2023-04-06T03:36:12;0.50;99.90
12688;DHT22;6408;59.388;17.798;2023-04-06T03:38:40;0.40;99.90
12688;DHT22;6408;59.388;17.798;2023-04-06T03:41:09;0.50;99.90
12688;DHT22;6408;59.388;17.798;2023-04-06T03:43:37;0.50;99.90
12688;DHT22;6408;59.388;17.798;2023-04-06T03:46:05;0.50;99.90
12688;DHT22;6408;59.388;17.798;2023-04-06T03:48:32;0.50;99.90
12688;DHT22;6408;59.388;17.798;2023-04-06T03:51:00;0.50;99.90
12688;DHT22;6408;59.388;17.798;2023-04-06T03:53:27;0.50;99.90
12688;DHT22;6408;59.388;17.798;2023-04-06T03:55:55;0.50;99.90
12688;DHT22;6408;59.388;17.798;2023-04-06T03:58:25;0.50;99.90
12688;DHT22;6408;59.388;17.798;2023-04-06T04:00:52;0.50;99.90
12688;DHT22;6408;59.388;17.798;2023-04-06T04:03:20;0.50;99.90
12688;DHT22;6408;59.388;17.798;2023-04-06T04:05:49;0.50;99.90
12688;DHT22;6408;59.388;17.798;2023-04-06T04:08:17;0.50;99.90
12688;DHT22;6408;59.388;17.798;2023-04-06T04:10:45;0.60;99.90
12688;DHT22;6408;59.388;17.798;2023-04-06T04:13:12;0.60;99.90
12688;DHT22;6408;59.388;17.798;2023-04-06T04:15:42;0.50;99.90
12688;DHT22;6408;59.388;17.798;2023-04-06T04:18:09;0.50;99.90
12688;DHT22;6408;59.388;17.798;2023-04-06T04:20:39;0.70;99.90
12688;DHT22;6408;59.388;17.798;2023-04-06T04:23:07;0.60;99.90
12688;DHT22;6408;59.388;17.798;2023-04-06T04:25:34;0.60;99.90
12688;DHT22;6408;59.388;17.798;2023-04-06T04:28:02;0.60;99.90
12688;DHT22;6408;59.388;17.798;2023-04-06T04:30:30;0.60;99.90
12688;DHT22;6408;59.388;17.798;2023-04-06T04:32:59;0.70;99.90
12688;DHT22;6408;59.388;17.798;2023-04-06T04:35:27;0.70;99.90
12688;DHT22;6408;59.388;17.798;2023-04-06T04:37:54;0.80;99.90
12688;DHT22;6408;59.388;17.798;2023-04-06T04:40:22;0.80;99.90
12688;DHT22;6408;59.388;17.798;2023-04-06T04:42:50;0.80;99.90
12688;DHT22;6408;59.388;17.798;2023-04-06T04:45:18;0.80;99.90
12688;DHT22;6408;59.388;17.798;2023-04-06T04:47:45;0.80;99.90
12688;DHT22;6408;59.388;17.798;2023-04-06T04:50:15;0.80;99.90
12688;DHT22;6408;59.388;17.798;2023-04-06T04:52:42;0.90;99.90
12688;DHT22;6408;59.388;17.798;2023-04-06T04:55:10;0.90;99.90
12688;DHT22;6408;59.388;17.798;2023-04-06T04:57:38;0.90;99.90
12688;DHT22;6408;59.388;17.798;2023-04-06T05:00:06;0.90;99.90
12688;DHT22;6408;59.388;17.798;2023-04-06T05:02:34;0.90;99.90
12688;DHT22;6408;59.388;17.798;2023-04-06T05:05:02;1.00;99.90
12688;DHT22;6408;59.388;17.798;2023-04-06T05:07:31;1.00;99.90
12688;DHT22;6408;59.388;17.798;2023-04-06T05:10:00;1.00;99.90
12688;DHT22;6408;59.388;17.798;2023-04-06T05:12:27;1.00;99.90
12688;DHT22;6408;59.388;17.798;2023-04-06T05:14:55;1.10;99.90
12688;DHT22;6408;59.388;17.798;2023-04-06T05:17:23;1.10;99.90
12688;DHT22;6408;59.388;17.798;2023-04-06T05:19:51;1.10;99.90
12688;DHT22;6408;59.388;17.798;2023-04-06T05:22:18;1.20;99.90
12688;DHT22;6408;59.388;17.798;2023-04-06T05:24:48;1.20;99.90
12688;DHT22;6408;59.388;17.798;2023-04-06T05:27:16;1.20;99.90
12688;DHT22;6408;59.388;17.798;2023-04-06T05:29:43;1.30;99.90
12688;DHT22;6408;59.388;17.798;2023-04-06T05:32:11;1.30;99.90
12688;DHT22;6408;59.388;17.798;2023-04-06T05:34:39;1.30;99.90
12688;DHT22;6408;59.388;17.798;2023-04-06T05:37:07;1.40;99.90
12688;DHT22;6408;59.388;17.798;2023-04-06T05:39:34;1.40;99.90
12688;DHT22;6408;59.388;17.798;2023-04-06T05:42:05;1.40;99.90
12688;DHT22;6408;59.388;17.798;2023-04-06T05:44:33;1.30;99.90
12688;DHT22;6408;59.388;17.798;2023-04-06T05:47:01;1.40;99.90
12688;DHT22;6408;59.388;17.798;2023-04-06T05:49:29;1.40;99.90
12688;DHT22;6408;59.388;17.798;2023-04-06T05:51:56;1.50;99.90
12688;DHT22;6408;59.388;17.798;2023-04-06T05:54:24;1.50;99.90
12688;DHT22;6408;59.388;17.798;2023-04-06T05:56:51;1.50;99.90
12688;DHT22;6408;59.388;17.798;2023-04-06T05:59:21;1.50;99.90
12688;DHT22;6408;59.388;17.798;2023-04-06T06:01:49;1.50;99.90
12688;DHT22;6408;59.388;17.798;2023-04-06T06:04:16;1.60;99.90
12688;DHT22;6408;59.388;17.798;2023-04-06T06:06:44;1.70;99.90
12688;DHT22;6408;59.388;17.798;2023-04-06T06:09:11;1.70;99.90
12688;DHT22;6408;59.388;17.798;2023-04-06T06:11:39;1.70;99.90
12688;DHT22;6408;59.388;17.798;2023-04-06T06:14:07;1.70;99.90
12688;DHT22;6408;59.388;17.798;2023-04-06T06:16:37;1.70;99.90
12688;DHT22;6408;59.388;17.798;2023-04-06T06:19:04;1.70;99.90
12688;DHT22;6408;59.388;17.798;2023-04-06T06:21:32;1.80;99.90
12688;DHT22;6408;59.388;17.798;2023-04-06T06:23:59;1.80;99.90
12688;DHT22;6408;59.388;17.798;2023-04-06T06:26:26;1.80;99.90
12688;DHT22;6408;59.388;17.798;2023-04-06T06:28:54;1.80;99.90
12688;DHT22;6408;59.388;17.798;2023-04-06T06:31:22;1.90;99.90
12688;DHT22;6408;59.388;17.798;2023-04-06T06:33:52;1.90;99.90
12688;DHT22;6408;59.388;17.798;2023-04-06T06:36:19;1.90;99.90
12688;DHT22;6408;59.388;17.798;2023-04-06T06:38:47;1.90;99.90
12688;DHT22;6408;59.388;17.798;2023-04-06T06:41:15;1.90;99.90
12688;DHT22;6408;59.388;17.798;2023-04-06T06:43:42;2.00;99.90
12688;DHT22;6408;59.388;17.798;2023-04-06T06:46:10;2.10;99.90
12688;DHT22;6408;59.388;17.798;2023-04-06T06:48:38;2.10;99.90
12688;DHT22;6408;59.388;17.798;2023-04-06T06:51:07;2.10;99.90
12688;DHT22;6408;59.388;17.798;2023-04-06T06:53:35;2.10;99.90
12688;DHT22;6408;59.388;17.798;2023-04-06T06:56:03;2.20;99.90
12688;DHT22;6408;59.388;17.798;2023-04-06T06:58:30;2.30;99.90
12688;DHT22;6408;59.388;17.798;2023-04-06T07:00:58;2.30;99.90
12688;DHT22;6408;59.388;17.798;2023-04-06T07:03:26;2.40;99.90
12688;DHT22;6408;59.388;17.798;2023-04-06T07:05:55;2.40;99.90
12688;DHT22;6408;59.388;17.798;2023-04-06T07:08:24;2.50;99.90
12688;DHT22;6408;59.388;17.798;2023-04-06T07:10:52;2.50;99.90
12688;DHT22;6408;59.388;17.798;2023-04-06T07:13:21;2.50;99.90
12688;DHT22;6408;59.388;17.798;2023-04-06T07:15:49;2.60;99.90
12688;DHT22;6408;59.388;17.798;2023-04-06T07:18:17;2.60;99.90
12688;DHT22;6408;59.388;17.798;2023-04-06T07:20:44;2.70;99.90
12688;DHT22;6408;59.388;17.798;2023-04-06T07:23:12;2.80;99.90
12688;DHT22;6408;59.388;17.798;2023-04-06T07:25:42;2.90;99.90
12688;DHT22;6408;59.388;17.798;2023-04-06T07:28:10;2.90;99.90
12688;DHT22;6408;59.388;17.798;2023-04-06T07:30:38;2.90;99.90
12688;DHT22;6408;59.388;17.798;2023-04-06T07:33:05;2.90;99.90
12688;DHT22;6408;59.388;17.798;2023-04-06T07:35:33;2.90;99.90
12688;DHT22;6408;59.388;17.798;2023-04-06T07:38:02;2.90;99.90
12688;DHT22;6408;59.388;17.798;2023-04-06T07:40:30;3.00;99.90
12688;DHT22;6408;59.388;17.798;2023-04-06T07:43:00;3.00;99.90
12688;DHT22;6408;59.388;17.798;2023-04-06T07:45:27;3.10;99.90
12688;DHT22;6408;59.388;17.798;2023-04-06T07:47:55;3.10;99.90
12688;DHT22;6408;59.388;17.798;2023-04-06T07:50:23;3.30;99.90
12688;DHT22;6408;59.388;17.798;2023-04-06T07:52:51;3.30;99.90
12688;DHT22;6408;59.388;17.798;2023-04-06T07:55:18;3.40;99.90
12688;DHT22;6408;59.388;17.798;2023-04-06T07:57:46;3.40;99.90
12688;DHT22;6408;59.388;17.798;2023-04-06T08:00:16;3.50;99.90
12688;DHT22;6408;59.388;17.798;2023-04-06T08:02:44;3.60;99.90
12688;DHT22;6408;59.388;17.798;2023-04-06T08:05:12;3.70;99.90
12688;DHT22;6408;59.388;17.798;2023-04-06T08:07:39;3.70;99.90
12688;DHT22;6408;59.388;17.798;2023-04-06T08:10:08;3.70;99.90
12688;DHT22;6408;59.388;17.798;2023-04-06T08:12:36;3.80;99.90
12688;DHT22;6408;59.388;17.798;2023-04-06T08:15:04;3.80;99.90
12688;DHT22;6408;59.388;17.798;2023-04-06T08:17:34;3.90;99.90
12688;DHT22;6408;59.388;17.798;2023-04-06T08:20:02;4.00;99.90
12688;DHT22;6408;59.388;17.798;2023-04-06T08:22:30;4.10;99.90
12688;DHT22;6408;59.388;17.798;2023-04-06T08:24:58;4.20;99.90
12688;DHT22;6408;59.388;17.798;2023-04-06T08:27:25;4.20;99.90
12688;DHT22;6408;59.388;17.798;2023-04-06T08:29:53;4.20;99.90
12688;DHT22;6408;59.388;17.798;2023-04-06T08:32:21;4.20;99.90
12688;DHT22;6408;59.388;17.798;2023-04-06T08:34:53;4.30;99.90
12688;DHT22;6408;59.388;17.798;2023-04-06T08:37:21;4.40;99.90
12688;DHT22;6408;59.388;17.798;2023-04-06T08:39:48;4.40;99.90
12688;DHT22;6408;59.388;17.798;2023-04-06T08:42:19;4.60;99.90
12688;DHT22;6408;59.388;17.798;2023-04-06T08:44:48;4.80;99.90
12688;DHT22;6408;59.388;17.798;2023-04-06T08:47:16;4.80;99.90
12688;DHT22;6408;59.388;17.798;2023-04-06T08:49:45;4.80;99.90
12688;DHT22;6408;59.388;17.798;2023-04-06T08:52:16;4.80;99.90
12688;DHT22;6408;59.388;17.798;2023-04-06T08:54:45;4.90;99.90
12688;DHT22;6408;59.388;17.798;2023-04-06T08:57:13;5.00;99.90
12688;DHT22;6408;59.388;17.798;2023-04-06T08:59:41;5.20;99.90
12688;DHT22;6408;59.388;17.798;2023-04-06T09:02:12;5.30;99.90
12688;DHT22;6408;59.388;17.798;2023-04-06T09:04:44;5.60;99.90
12688;DHT22;6408;59.388;17.798;2023-04-06T09:07:13;5.40;99.90
12688;DHT22;6408;59.388;17.798;2023-04-06T09:09:41;5.40;99.90
12688;DHT22;6408;59.388;17.798;2023-04-06T09:12:22;5.50;99.90
12688;DHT22;6408;59.388;17.798;2023-04-06T09:14:49;5.40;99.90
12688;DHT22;6408;59.388;17.798;2023-04-06T09:17:21;5.50;99.90
12688;DHT22;6408;59.388;17.798;2023-04-06T09:19:49;5.70;99.90
12688;DHT22;6408;59.388;17.798;2023-04-06T09:22:19;5.70;99.90
12688;DHT22;6408;59.388;17.798;2023-04-06T09:24:49;5.60;99.90
12688;DHT22;6408;59.388;17.798;2023-04-06T09:27:17;5.70;99.90
12688;DHT22;6408;59.388;17.798;2023-04-06T09:29:45;5.80;99.90
12688;DHT22;6408;59.388;17.798;2023-04-06T09:32:12;5.90;99.90
12688;DHT22;6408;59.388;17.798;2023-04-06T09:34:42;6.10;99.90
12688;DHT22;6408;59.388;17.798;2023-04-06T09:37:14;6.30;99.90
12688;DHT22;6408;59.388;17.798;2023-04-06T09:39:44;6.50;99.90
12688;DHT22;6408;59.388;17.798;2023-04-06T09:42:23;6.60;99.90
12688;DHT22;6408;59.388;17.798;2023-04-06T09:44:51;6.70;99.90
12688;DHT22;6408;59.388;17.798;2023-04-06T09:47:20;6.60;99.90
12688;DHT22;6408;59.388;17.798;2023-04-06T09:49:50;6.80;99.90
12688;DHT22;6408;59.388;17.798;2023-04-06T09:52:20;6.90;99.90
12688;DHT22;6408;59.388;17.798;2023-04-06T09:54:51;7.00;99.90
12688;DHT22;6408;59.388;17.798;2023-04-06T09:57:24;7.20;99.90
12688;DHT22;6408;59.388;17.798;2023-04-06T10:00:03;7.30;99.90
12688;DHT22;6408;59.388;17.798;2023-04-06T10:02:41;7.40;99.90
12688;DHT22;6408;59.388;17.798;2023-04-06T10:05:15;7.50;99.90
12688;DHT22;6408;59.388;17.798;2023-04-06T10:07:45;7.80;99.90
12688;DHT22;6408;59.388;17.798;2023-04-06T10:10:16;8.10;99.90
12688;DHT22;6408;59.388;17.798;2023-04-06T10:12:44;7.80;99.90
12688;DHT22;6408;59.388;17.798;2023-04-06T10:15:12;7.70;99.90
12688;DHT22;6408;59.388;17.798;2023-04-06T10:17:40;7.50;99.90
12688;DHT22;6408;59.388;17.798;2023-04-06T10:20:10;6.90;99.90
12688;DHT22;6408;59.388;17.798;2023-04-06T10:22:43;6.60;99.90
12688;DHT22;6408;59.388;17.798;2023-04-06T10:25:26;6.60;99.90
12688;DHT22;6408;59.388;17.798;2023-04-06T10:27:59;6.60;99.90
12688;DHT22;6408;59.388;17.798;2023-04-06T10:30:28;6.80;99.90
12688;DHT22;6408;59.388;17.798;2023-04-06T10:32:56;6.70;99.90
12688;DHT22;6408;59.388;17.798;2023-04-06T10:35:24;6.80;99.90
12688;DHT22;6408;59.388;17.798;2023-04-06T10:37:53;6.90;99.90
12688;DHT22;6408;59.388;17.798;2023-04-06T10:40:37;6.80;99.90
12688;DHT22;6408;59.388;17.798;2023-04-06T10:43:09;6.90;99.90
12688;DHT22;6408;59.388;17.798;2023-04-06T10:45:37;7.00;99.90
12688;DHT22;6408;59.388;17.798;2023-04-06T10:48:15;7.00;99.90
12688;DHT22;6408;59.388;17.798;2023-04-06T10:50:44;7.20;99.90
12688;DHT22;6408;59.388;17.798;2023-04-06T10:53:20;7.00;99.90
12688;DHT22;6408;59.388;17.798;2023-04-06T10:55:51;6.80;99.90
12688;DHT22;6408;59.388;17.798;2023-04-06T10:58:19;7.10;99.90
12688;DHT22;6408;59.388;17.798;2023-04-06T11:00:48;7.30;99.90
12688;DHT22;6408;59.388;17.798;2023-04-06T11:03:16;7.50;99.90
12688;DHT22;6408;59.388;17.798;2023-04-06T11:05:44;7.80;99.90
12688;DHT22;6408;59.388;17.798;2023-04-06T11:08:22;8.10;99.90
12688;DHT22;6408;59.388;17.798;2023-04-06T11:11:04;8.20;99.90
12688;DHT22;6408;59.388;17.798;2023-04-06T11:13:42;8.50;99.90
12688;DHT22;6408;59.388;17.798;2023-04-06T11:16:15;8.70;99.90
12688;DHT22;6408;59.388;17.798;2023-04-06T11:18:53;8.70;99.90
12688;DHT22;6408;59.388;17.798;2023-04-06T11:21:33;9.20;99.90
12688;DHT22;6408;59.388;17.798;2023-04-06T11:24:05;9.50;99.90
12688;DHT22;6408;59.388;17.798;2023-04-06T11:26:39;9.70;99.90
12688;DHT22;6408;59.388;17.798;2023-04-06T11:29:07;9.30;99.90
12688;DHT22;6408;59.388;17.798;2023-04-06T11:31:42;9.30;99.90
12688;DHT22;6408;59.388;17.798;2023-04-06T11:34:11;9.40;99.90
12688;DHT22;6408;59.388;17.798;2023-04-06T11:36:42;9.40;99.90
12688;DHT22;6408;59.388;17.798;2023-04-06T11:39:11;9.20;99.90
12688;DHT22;6408;59.388;17.798;2023-04-06T11:41:41;9.20;99.90
12688;DHT22;6408;59.388;17.798;2023-04-06T11:44:09;9.10;99.90
12688;DHT22;6408;59.388;17.798;2023-04-06T11:46:36;9.40;99.90
12688;DHT22;6408;59.388;17.798;2023-04-06T11:49:04;9.40;99.90
12688;DHT22;6408;59.388;17.798;2023-04-06T11:51:35;9.60;99.90
12688;DHT22;6408;59.388;17.798;2023-04-06T11:54:04;9.40;99.90
12688;DHT22;6408;59.388;17.798;2023-04-06T11:56:31;9.20;99.90
12688;DHT22;6408;59.388;17.798;2023-04-06T11:59:01;9.10;99.90
12688;DHT22;6408;59.388;17.798;2023-04-06T12:01:29;9.00;99.90
12688;DHT22;6408;59.388;17.798;2023-04-06T12:03:56;9.00;99.90
12688;DHT22;6408;59.388;17.798;2023-04-06T12:06:24;8.90;99.90
12688;DHT22;6408;59.388;17.798;2023-04-06T12:08:52;9.00;99.90
12688;DHT22;6408;59.388;17.798;2023-04-06T12:11:20;8.80;99.90
12688;DHT22;6408;59.388;17.798;2023-04-06T12:13:48;8.80;99.90
12688;DHT22;6408;59.388;17.798;2023-04-06T12:16:17;8.70;99.90
12688;DHT22;6408;59.388;17.798;2023-04-06T12:18:46;8.50;99.90
12688;DHT22;6408;59.388;17.798;2023-04-06T12:21:14;8.40;99.90
12688;DHT22;6408;59.388;17.798;2023-04-06T12:23:41;8.40;99.90
12688;DHT22;6408;59.388;17.798;2023-04-06T12:26:09;8.60;99.90
12688;DHT22;6408;59.388;17.798;2023-04-06T12:28:37;8.80;99.90
12688;DHT22;6408;59.388;17.798;2023-04-06T12:31:05;8.90;99.90
12688;DHT22;6408;59.388;17.798;2023-04-06T12:33:35;8.80;99.90
12688;DHT22;6408;59.388;17.798;2023-04-06T12:36:03;8.50;99.90
12688;DHT22;6408;59.388;17.798;2023-04-06T12:38:31;8.40;99.90
12688;DHT22;6408;59.388;17.798;2023-04-06T12:40:58;8.40;99.90
12688;DHT22;6408;59.388;17.798;2023-04-06T12:43:26;8.60;99.90
12688;DHT22;6408;59.388;17.798;2023-04-06T12:45:54;8.60;99.90
12688;DHT22;6408;59.388;17.798;2023-04-06T12:48:22;8.60;99.90
12688;DHT22;6408;59.388;17.798;2023-04-06T12:50:57;8.50;99.90
12688;DHT22;6408;59.388;17.798;2023-04-06T12:53:25;8.80;99.90
12688;DHT22;6408;59.388;17.798;2023-04-06T12:55:54;9.00;99.90
12688;DHT22;6408;59.388;17.798;2023-04-06T12:58:22;9.10;99.90
12688;DHT22;6408;59.388;17.798;2023-04-06T13:00:52;9.00;99.90
12688;DHT22;6408;59.388;17.798;2023-04-06T13:03:21;8.70;99.90
12688;DHT22;6408;59.388;17.798;2023-04-06T13:05:49;8.50;99.90
12688;DHT22;6408;59.388;17.798;2023-04-06T13:08:19;8.30;99.90
12688;DHT22;6408;59.388;17.798;2023-04-06T13:10:47;8.00;99.90
12688;DHT22;6408;59.388;17.798;2023-04-06T13:13:15;7.80;99.90
12688;DHT22;6408;59.388;17.798;2023-04-06T13:15:43;7.80;99.90
12688;DHT22;6408;59.388;17.798;2023-04-06T13:18:12;7.80;99.90
12688;DHT22;6408;59.388;17.798;2023-04-06T13:20:40;7.80;99.90
12688;DHT22;6408;59.388;17.798;2023-04-06T13:23:08;7.80;99.90
12688;DHT22;6408;59.388;17.798;2023-04-06T13:25:38;7.70;99.90
12688;DHT22;6408;59.388;17.798;2023-04-06T13:28:05;7.50;99.90
12688;DHT22;6408;59.388;17.798;2023-04-06T13:30:33;7.50;99.90
12688;DHT22;6408;59.388;17.798;2023-04-06T13:33:01;7.40;99.90
12688;DHT22;6408;59.388;17.798;2023-04-06T13:35:30;7.30;99.90
12688;DHT22;6408;59.388;17.798;2023-04-06T13:37:57;7.20;99.90
12688;DHT22;6408;59.388;17.798;2023-04-06T13:40:25;7.10;99.90
12688;DHT22;6408;59.388;17.798;2023-04-06T13:42:54;7.30;99.90
12688;DHT22;6408;59.388;17.798;2023-04-06T13:45:21;7.20;99.90
12688;DHT22;6408;59.388;17.798;2023-04-06T13:47:49;7.00;99.90
12688;DHT22;6408;59.388;17.798;2023-04-06T13:50:17;6.80;99.90
12688;DHT22;6408;59.388;17.798;2023-04-06T13:52:45;6.80;99.90
12688;DHT22;6408;59.388;17.798;2023-04-06T13:55:13;6.90;99.90
12688;DHT22;6408;59.388;17.798;2023-04-06T13:57:41;7.00;99.90
12688;DHT22;6408;59.388;17.798;2023-04-06T14:00:12;7.10;99.90
12688;DHT22;6408;59.388;17.798;2023-04-06T14:02:40;7.20;99.90
12688;DHT22;6408;59.388;17.798;2023-04-06T14:05:09;7.30;99.90
12688;DHT22;6408;59.388;17.798;2023-04-06T14:07:36;7.40;99.90
12688;DHT22;6408;59.388;17.798;2023-04-06T14:10:05;7.50;99.90
12688;DHT22;6408;59.388;17.798;2023-04-06T14:12:39;7.50;99.90
12688;DHT22;6408;59.388;17.798;2023-04-06T14:15:11;7.50;99.90
12688;DHT22;6408;59.388;17.798;2023-04-06T14:17:38;7.60;99.90
12688;DHT22;6408;59.388;17.798;2023-04-06T14:20:06;7.50;99.90
12688;DHT22;6408;59.388;17.798;2023-04-06T14:22:39;7.70;99.90
12688;DHT22;6408;59.388;17.798;2023-04-06T14:25:08;7.80;99.90
12688;DHT22;6408;59.388;17.798;2023-04-06T14:27:36;7.90;99.90
12688;DHT22;6408;59.388;17.798;2023-04-06T14:30:05;7.80;99.90
12688;DHT22;6408;59.388;17.798;2023-04-06T14:32:34;7.90;99.90
12688;DHT22;6408;59.388;17.798;2023-04-06T14:35:03;7.80;99.90
12688;DHT22;6408;59.388;17.798;2023-04-06T14:37:30;7.80;99.90
12688;DHT22;6408;59.388;17.798;2023-04-06T14:39:58;7.80;99.90
12688;DHT22;6408;59.388;17.798;2023-04-06T14:42:25;7.80;99.90
12688;DHT22;6408;59.388;17.798;2023-04-06T14:44:53;7.90;99.90
12688;DHT22;6408;59.388;17.798;2023-04-06T14:47:20;8.00;99.90
12688;DHT22;6408;59.388;17.798;2023-04-06T14:49:51;8.00;99.90
12688;DHT22;6408;59.388;17.798;2023-04-06T14:52:19;8.00;99.90
12688;DHT22;6408;59.388;17.798;2023-04-06T14:54:46;7.90;99.90
12688;DHT22;6408;59.388;17.798;2023-04-06T14:57:14;8.00;99.90
12688;DHT22;6408;59.388;17.798;2023-04-06T14:59:41;7.90;99.90
12688;DHT22;6408;59.388;17.798;2023-04-06T15:02:09;7.70;99.90
12688;DHT22;6408;59.388;17.798;2023-04-06T15:04:38;7.40;99.90
12688;DHT22;6408;59.388;17.798;2023-04-06T15:07:08;7.20;99.90
12688;DHT22;6408;59.388;17.798;2023-04-06T15:09:36;7.20;99.90
12688;DHT22;6408;59.388;17.798;2023-04-06T15:12:04;7.20;99.90
12688;DHT22;6408;59.388;17.798;2023-04-06T15:14:32;7.20;99.90
12688;DHT22;6408;59.388;17.798;2023-04-06T15:16:59;7.10;99.90
12688;DHT22;6408;59.388;17.798;2023-04-06T15:19:27;7.00;99.90
12688;DHT22;6408;59.388;17.798;2023-04-06T15:21:55;6.90;99.90
12688;DHT22;6408;59.388;17.798;2023-04-06T15:24:24;6.80;99.90
12688;DHT22;6408;59.388;17.798;2023-04-06T15:26:51;6.80;99.90
12688;DHT22;6408;59.388;17.798;2023-04-06T15:29:19;6.90;99.90
12688;DHT22;6408;59.388;17.798;2023-04-06T15:31:46;6.80;99.90
12688;DHT22;6408;59.388;17.798;2023-04-06T15:34:14;6.70;99.90
12688;DHT22;6408;59.388;17.798;2023-04-06T15:36:41;6.80;99.90
12688;DHT22;6408;59.388;17.798;2023-04-06T15:39:11;6.70;99.90
12688;DHT22;6408;59.388;17.798;2023-04-06T15:41:40;6.70;99.90
12688;DHT22;6408;59.388;17.798;2023-04-06T15:44:08;6.70;99.90
12688;DHT22;6408;59.388;17.798;2023-04-06T15:46:36;6.80;99.90
12688;DHT22;6408;59.388;17.798;2023-04-06T15:49:03;6.70;99.90
12688;DHT22;6408;59.388;17.798;2023-04-06T15:51:31;6.70;99.90
12688;DHT22;6408;59.388;17.798;2023-04-06T15:53:58;6.60;99.90